Time;durP1;ratioP1;P1;durP2;ratioP2;P2;SDS_P1;SDS_P2;PMS_P1;PMS_P2;Temp;Humidity;BMP_temperature;BMP_pressure;BME280_temperature;BME280_humidity;BME280_pressure;Samples;Min_cycle;Max_cycle;Signal;HPM_P1;HPM_P2
2021/03/22 00:00:23;;;;;;;449.40;210.40;;;;;;;;;;5038286;28;20036;-79
2021/03/22 00:02:49;;;;;;;445.88;215.63;;;;;;;;;;5050941;28;20385;-80
2021/03/22 00:05:15;;;;;;;451.90;212.07;;;;;;;;;;5048829;28;20030;-80
2021/03/22 00:07:41;;;;;;;451.90;212.90;;;;;;;;;;5051138;28;20139;-80
2021/03/22 00:10:08;;;;;;;447.67;215.18;;;;;;;;;;5031143;28;20036;-80
2021/03/22 00:12:34;;;;;;;448.25;210.20;;;;;;;;;;5051149;28;20028;-80
2021/03/22 00:15:00;;;;;;;456.77;217.13;;;;;;;;;;5054216;28;20025;-79
2021/03/22 00:17:26;;;;;;;461.13;219.10;;;;;;;;;;5038069;28;20134;-79
2021/03/22 00:19:52;;;;;;;457.63;221.32;;;;;;;;;;5037734;28;20031;-81
2021/03/22 00:22:18;;;;;;;459.10;214.15;;;;;;;;;;5054138;28;20025;-80
2021/03/22 00:24:44;;;;;;;520.97;233.20;;;;;;;;;;5054497;28;20224;-80
2021/03/22 00:27:10;;;;;;;460.60;215.23;;;;;;;;;;5053910;28;20061;-79
2021/03/22 00:29:36;;;;;;;485.60;218.90;;;;;;;;;;5049062;28;20076;-79
2021/03/22 00:32:02;;;;;;;514.58;227.93;;;;;;;;;;5050543;28;20645;-79
2021/03/22 00:34:28;;;;;;;513.47;235.50;;;;;;;;;;5046302;28;20029;-80
2021/03/22 00:36:55;;;;;;;496.95;231.15;;;;;;;;;;5049766;28;20078;-80
2021/03/22 00:39:21;;;;;;;515.28;233.98;;;;;;;;;;5037376;28;20020;-79
2021/03/22 00:41:47;;;;;;;526.83;229.63;;;;;;;;;;5054315;28;20028;-79
2021/03/22 00:44:13;;;;;;;496.95;218.85;;;;;;;;;;5035664;28;20063;-81
2021/03/22 00:46:39;;;;;;;498.15;223.32;;;;;;;;;;5054830;28;20029;-79
2021/03/22 00:49:06;;;;;;;506.95;235.07;;;;;;;;;;5037398;28;20025;-80
2021/03/22 00:51:32;;;;;;;519.95;225.73;;;;;;;;;;5033696;28;20041;-80
2021/03/22 00:53:57;;;;;;;497.63;214.30;;;;;;;;;;5053304;28;20032;-80
2021/03/22 00:56:23;;;;;;;509.80;228.35;;;;;;;;;;5053384;28;20032;-80
2021/03/22 00:58:49;;;;;;;506.85;222.85;;;;;;;;;;5053686;28;20032;-80
2021/03/22 01:01:15;;;;;;;534.88;237.18;;;;;;;;;;5050776;28;20510;-79
2021/03/22 01:03:41;;;;;;;527.60;230.40;;;;;;;;;;5052918;28;20657;-80
2021/03/22 01:06:08;;;;;;;509.90;219.07;;;;;;;;;;5036914;28;20048;-80
2021/03/22 01:08:36;;;;;;;501.25;218.82;;;;;;;;;;5036974;28;20075;-79
2021/03/22 01:11:02;;;;;;;517.65;222.30;;;;;;;;;;5049368;28;20079;-80
2021/03/22 01:13:30;;;;;;;539.63;229.25;;;;;;;;;;5032324;28;20033;-79
2021/03/22 01:15:56;;;;;;;496.05;216.70;;;;;;;;;;5034549;28;20112;-80
2021/03/22 01:18:24;;;;;;;465.20;213.40;;;;;;;;;;5036932;28;20033;-79
2021/03/22 01:20:55;;;;;;;464.77;210.65;;;;;;;;;;5036512;28;20036;-79
2021/03/22 01:23:22;;;;;;;470.25;211.77;;;;;;;;;;5060084;28;20035;-80
2021/03/22 01:25:48;;;;;;;477.58;211.48;;;;;;;;;;5056327;28;20025;-80
2021/03/22 01:28:16;;;;;;;480.00;217.27;;;;;;;;;;5037414;28;20111;-80
2021/03/22 01:30:42;;;;;;;468.67;215.98;;;;;;;;;;5053243;28;20665;-79
2021/03/22 01:33:13;;;;;;;457.02;213.38;;;;;;;;;;5033048;28;20131;-79
2021/03/22 01:35:39;;;;;;;464.85;215.45;;;;;;;;;;5048049;28;20483;-79
2021/03/22 01:38:06;;;;;;;461.13;209.18;;;;;;;;;;5033109;28;20396;-78
2021/03/22 01:40:35;;;;;;;453.67;212.52;;;;;;;;;;5033067;28;20036;-80
2021/03/22 01:43:21;;;;;;;489.98;218.25;;;;;;;;;;5049807;28;20040;-80
2021/03/22 01:45:47;;;;;;;471.05;219.32;;;;;;;;;;5006225;28;20044;-80
2021/03/22 01:48:13;;;;;;;488.50;210.18;;;;;;;;;;5054014;28;20032;-81
2021/03/22 01:50:39;;;;;;;532.55;232.95;;;;;;;;;;5044709;28;20021;-79
2021/03/22 01:53:05;;;;;;;475.63;220.38;;;;;;;;;;5051412;28;20099;-79
2021/03/22 01:55:31;;;;;;;500.90;225.70;;;;;;;;;;5036019;28;20036;-80
2021/03/22 01:57:57;;;;;;;545.70;237.95;;;;;;;;;;5042344;28;20032;-79
2021/03/22 02:00:26;;;;;;;571.65;248.80;;;;;;;;;;5065843;28;20024;-80
2021/03/22 02:02:53;;;;;;;456.45;216.95;;;;;;;;;;5045001;28;20036;-79
2021/03/22 02:05:21;;;;;;;548.45;234.57;;;;;;;;;;5037289;28;20114;-79
2021/03/22 02:07:51;;;;;;;502.10;222.55;;;;;;;;;;5042124;28;20111;-80
2021/03/22 02:10:16;;;;;;;654.33;300.83;;;;;;;;;;5052509;28;20029;-80
2021/03/22 02:12:42;;;;;;;462.20;215.25;;;;;;;;;;5050521;28;20365;-82
2021/03/22 02:15:09;;;;;;;478.35;226.27;;;;;;;;;;5068381;28;20171;-81
2021/03/22 02:17:35;;;;;;;466.80;214.20;;;;;;;;;;5068519;28;20028;-79
2021/03/22 02:20:20;;;;;;;486.92;221.48;;;;;;;;;;5053350;28;20029;-80
2021/03/22 02:22:46;;;;;;;499.55;216.20;;;;;;;;;;5056631;28;20036;-79
2021/03/22 02:25:15;;;;;;;488.50;222.63;;;;;;;;;;5053356;28;20025;-80
2021/03/22 02:27:59;;;;;;;488.42;216.05;;;;;;;;;;5051518;28;20025;-79
2021/03/22 02:30:34;;;;;;;491.23;215.90;;;;;;;;;;5068484;28;20465;-79
2021/03/22 02:33:27;;;;;;;497.95;220.73;;;;;;;;;;5068334;28;20032;-80
2021/03/22 02:36:23;;;;;;;489.33;224.63;;;;;;;;;;5051136;28;20081;-79
2021/03/22 02:38:48;;;;;;;503.13;223.48;;;;;;;;;;5022146;28;20037;-79
2021/03/22 02:41:24;;;;;;;511.00;232.02;;;;;;;;;;5068233;28;20397;-79
2021/03/22 02:44:05;;;;;;;511.50;230.57;;;;;;;;;;5066667;28;20049;-80
2021/03/22 02:46:30;;;;;;;;;;;;;;;;;;5052199;28;20025;-80
2021/03/22 02:48:57;;;;;;;489.75;220.85;;;;;;;;;;5068474;28;19908;-80
2021/03/22 02:51:34;;;;;;;486.88;219.13;;;;;;;;;;5051297;28;20025;-80
2021/03/22 02:54:23;;;;;;;513.67;234.77;;;;;;;;;;5037913;28;20044;-80
2021/03/22 02:56:54;;;;;;;503.52;224.18;;;;;;;;;;5012785;28;20037;-80
2021/03/22 02:59:31;;;;;;;475.13;219.27;;;;;;;;;;5051219;28;20057;-81
2021/03/22 03:02:01;;;;;;;490.30;225.95;;;;;;;;;;5051431;28;20123;-79
2021/03/22 03:04:29;;;;;;;551.33;253.65;;;;;;;;;;5035548;28;20397;-80
2021/03/22 03:07:00;;;;;;;553.13;249.90;;;;;;;;;;5032538;28;20033;-80
2021/03/22 03:09:31;;;;;;;557.65;247.65;;;;;;;;;;5031040;28;20074;-80
2021/03/22 03:12:08;;;;;;;535.90;244.68;;;;;;;;;;5031642;28;20022;-80
2021/03/22 03:14:34;;;;;;;522.90;241.07;;;;;;;;;;5045055;28;20025;-80
2021/03/22 03:17:00;;;;;;;521.00;239.48;;;;;;;;;;5048100;28;20029;-79
2021/03/22 03:19:26;;;;;;;532.15;248.65;;;;;;;;;;5051057;28;20049;-80
2021/03/22 03:21:52;;;;;;;516.55;241.70;;;;;;;;;;5034433;28;20022;-80
2021/03/22 03:24:18;;;;;;;554.03;251.32;;;;;;;;;;5034304;28;20031;-80
2021/03/22 03:26:44;;;;;;;556.60;259.13;;;;;;;;;;5033900;28;20616;-81
2021/03/22 03:29:09;;;;;;;581.33;268.40;;;;;;;;;;5034721;28;20060;-81
2021/03/22 03:31:36;;;;;;;613.22;280.60;;;;;;;;;;5034752;28;20384;-79
2021/03/22 03:34:03;;;;;;;518.97;244.73;;;;;;;;;;5051946;28;20029;-79
2021/03/22 03:36:29;;;;;;;512.78;230.98;;;;;;;;;;5034463;28;20119;-80
2021/03/22 03:38:55;;;;;;;546.42;252.27;;;;;;;;;;5034150;28;20053;-80
2021/03/22 03:41:21;;;;;;;533.75;241.68;;;;;;;;;;5034348;28;20035;-79
2021/03/22 03:43:47;;;;;;;503.05;229.48;;;;;;;;;;5032673;28;20064;-80
2021/03/22 03:46:13;;;;;;;503.73;230.50;;;;;;;;;;5034625;28;20056;-80
2021/03/22 03:48:39;;;;;;;532.58;251.48;;;;;;;;;;5054989;28;20108;-79
2021/03/22 03:51:06;;;;;;;527.22;240.20;;;;;;;;;;5054526;28;20037;-79
2021/03/22 03:53:32;;;;;;;521.67;242.05;;;;;;;;;;5055774;28;20032;-80
2021/03/22 03:55:58;;;;;;;551.85;252.32;;;;;;;;;;5054551;28;20032;-80
2021/03/22 03:58:24;;;;;;;530.35;243.20;;;;;;;;;;5054421;28;20033;-80
2021/03/22 04:00:51;;;;;;;535.45;245.43;;;;;;;;;;5054287;28;20025;-81
2021/03/22 04:03:23;;;;;;;519.20;240.43;;;;;;;;;;5054788;28;20032;-80
2021/03/22 04:06:06;;;;;;;508.10;241.95;;;;;;;;;;5055811;28;20548;-79
2021/03/22 04:08:33;;;;;;;513.08;238.98;;;;;;;;;;5038027;28;20388;-80
2021/03/22 04:11:00;;;;;;;495.38;226.85;;;;;;;;;;5047690;28;20029;-80
2021/03/22 04:16:36;;;;;;;485.05;226.85;;;;;;;;;;5055927;28;20032;-79
2021/03/22 04:19:02;;;;;;;481.20;223.57;;;;;;;;;;5036980;28;20041;-79
2021/03/22 04:21:30;;;;;;;473.35;215.70;;;;;;;;;;5037928;28;20453;-79
2021/03/22 04:23:57;;;;;;;502.27;230.10;;;;;;;;;;5037504;28;20032;-80
2021/03/22 04:26:23;;;;;;;516.13;245.25;;;;;;;;;;5053855;28;20029;-80
2021/03/22 04:28:49;;;;;;;536.90;245.32;;;;;;;;;;5037610;28;20401;-79
2021/03/22 04:31:17;;;;;;;533.33;242.55;;;;;;;;;;5034067;28;20029;-79
2021/03/22 04:33:43;;;;;;;547.15;253.52;;;;;;;;;;5044109;28;20028;-79
2021/03/22 04:36:10;;;;;;;559.58;263.85;;;;;;;;;;5055778;28;20036;-79
2021/03/22 04:38:36;;;;;;;562.72;272.83;;;;;;;;;;5037710;28;20583;-79
2021/03/22 04:41:02;;;;;;;533.08;255.45;;;;;;;;;;5034890;28;20033;-79
2021/03/22 04:43:28;;;;;;;547.35;257.45;;;;;;;;;;5035989;28;20081;-79
2021/03/22 04:45:54;;;;;;;508.13;234.73;;;;;;;;;;5037245;28;20145;-80
2021/03/22 04:48:20;;;;;;;495.92;231.05;;;;;;;;;;5037330;28;20564;-79
2021/03/22 04:50:46;;;;;;;493.95;236.60;;;;;;;;;;5037069;28;20072;-80
2021/03/22 04:53:12;;;;;;;484.73;234.50;;;;;;;;;;5053322;28;20131;-80
2021/03/22 04:55:38;;;;;;;490.58;244.10;;;;;;;;;;5047990;28;20024;-80
2021/03/22 04:58:04;;;;;;;480.98;232.25;;;;;;;;;;5074497;28;20118;-79
2021/03/22 05:00:39;;;;;;;491.90;227.13;;;;;;;;;;5063330;28;20082;-79
2021/03/22 05:03:06;;;;;;;480.48;228.45;;;;;;;;;;5052667;28;20021;-79
2021/03/22 05:05:32;;;;;;;509.08;237.70;;;;;;;;;;5033539;28;20025;-80
2021/03/22 05:07:59;;;;;;;513.40;240.38;;;;;;;;;;5036246;28;20507;-80
2021/03/22 05:10:28;;;;;;;529.15;247.30;;;;;;;;;;5036436;28;20373;-80
2021/03/22 05:12:54;;;;;;;515.67;250.65;;;;;;;;;;5035081;28;20650;-79
2021/03/22 05:15:20;;;;;;;524.22;248.18;;;;;;;;;;5036367;28;20037;-79
2021/03/22 05:17:46;;;;;;;505.77;235.98;;;;;;;;;;5053013;28;20028;-79
2021/03/22 05:20:18;;;;;;;496.13;235.93;;;;;;;;;;5033297;28;20545;-79
2021/03/22 05:22:44;;;;;;;501.60;237.48;;;;;;;;;;5034596;28;20029;-80
2021/03/22 05:25:10;;;;;;;505.50;239.40;;;;;;;;;;5035985;28;20021;-79
2021/03/22 05:27:36;;;;;;;524.88;251.65;;;;;;;;;;5036255;28;20037;-80
2021/03/22 05:30:04;;;;;;;528.55;244.38;;;;;;;;;;5036521;28;20476;-80
2021/03/22 05:32:32;;;;;;;540.40;251.85;;;;;;;;;;5057017;28;20490;-80
2021/03/22 05:35:21;;;;;;;543.80;260.13;;;;;;;;;;5056451;28;20032;-81
2021/03/22 05:37:47;;;;;;;521.92;238.60;;;;;;;;;;5035687;28;20037;-80
2021/03/22 05:40:21;;;;;;;518.83;245.27;;;;;;;;;;5052726;28;20530;-81
2021/03/22 05:42:57;;;;;;;551.03;262.15;;;;;;;;;;5052088;28;20025;-82
2021/03/22 05:45:33;;;;;;;519.05;250.27;;;;;;;;;;5049630;28;20051;-81
2021/03/22 05:48:04;;;;;;;520.00;241.25;;;;;;;;;;5032986;28;20030;-80
2021/03/22 05:50:33;;;;;;;516.80;242.70;;;;;;;;;;5046697;28;20063;-79
2021/03/22 05:53:08;;;;;;;499.67;237.70;;;;;;;;;;5053030;28;20037;-79
2021/03/22 05:55:37;;;;;;;522.75;252.75;;;;;;;;;;5052273;28;20063;-79
2021/03/22 05:58:10;;;;;;;491.15;229.10;;;;;;;;;;5035976;28;20036;-79
2021/03/22 06:00:36;;;;;;;485.52;237.40;;;;;;;;;;5035714;28;20024;-78
2021/03/22 06:03:12;;;;;;;482.38;229.50;;;;;;;;;;5035529;28;20459;-79
2021/03/22 06:05:44;;;;;;;494.75;237.50;;;;;;;;;;5017889;28;20029;-79
2021/03/22 06:08:25;;;;;;;483.33;236.73;;;;;;;;;;5053563;28;20029;-79
2021/03/22 06:10:52;;;;;;;486.38;223.45;;;;;;;;;;5050377;28;20029;-78
2021/03/22 06:13:22;;;;;;;480.33;243.20;;;;;;;;;;5051628;28;20393;-81
2021/03/22 06:15:48;;;;;;;;;;;;;;;;;;5034293;28;20477;-80
2021/03/22 06:18:23;;;;;;;463.38;218.05;;;;;;;;;;5068979;28;19954;-79
2021/03/22 06:20:51;;;;;;;468.48;221.27;;;;;;;;;;5052800;28;20032;-79
2021/03/22 06:23:22;;;;;;;481.55;229.40;;;;;;;;;;5043580;28;20032;-79
2021/03/22 06:25:49;;;;;;;482.67;233.10;;;;;;;;;;5049029;28;20061;-80
2021/03/22 06:28:15;;;;;;;473.13;228.55;;;;;;;;;;5035372;28;20029;-79
2021/03/22 06:30:48;;;;;;;477.00;241.85;;;;;;;;;;5035364;28;20029;-79
2021/03/22 06:33:23;;;;;;;478.42;229.00;;;;;;;;;;5032017;28;20087;-79
2021/03/22 06:35:49;;;;;;;483.20;236.40;;;;;;;;;;5044923;28;20033;-79
2021/03/22 06:38:15;;;;;;;478.40;245.45;;;;;;;;;;5051706;28;20020;-79
2021/03/22 06:40:40;;;;;;;486.00;235.38;;;;;;;;;;5035151;28;20036;-79
2021/03/22 06:43:06;;;;;;;482.95;250.88;;;;;;;;;;5033268;28;20024;-80
2021/03/22 06:49:10;;;;;;;480.30;228.13;;;;;;;;;;5033260;28;20036;-79
2021/03/22 06:51:36;;;;;;;477.38;232.88;;;;;;;;;;5019296;28;20033;-77
2021/03/22 06:54:02;;;;;;;466.98;229.60;;;;;;;;;;5051482;28;20031;-79
2021/03/22 06:56:39;;;;;;;473.58;232.18;;;;;;;;;;5050775;28;20029;-79
2021/03/22 06:59:17;;;;;;;475.67;229.95;;;;;;;;;;5034656;28;20028;-79
2021/03/22 07:01:44;;;;;;;476.95;236.63;;;;;;;;;;5034207;28;20027;-79
2021/03/22 07:04:16;;;;;;;465.50;228.18;;;;;;;;;;5034516;28;20187;-79
2021/03/22 07:06:42;;;;;;;476.55;231.18;;;;;;;;;;5033831;28;20108;-80
2021/03/22 07:09:08;;;;;;;466.30;227.70;;;;;;;;;;5051474;28;20133;-81
2021/03/22 07:11:48;;;;;;;471.35;235.88;;;;;;;;;;5034060;28;20025;-81
2021/03/22 07:14:22;;;;;;;464.27;226.68;;;;;;;;;;5040384;28;20381;-81
2021/03/22 07:17:01;;;;;;;471.48;241.75;;;;;;;;;;5039411;28;20021;-80
2021/03/22 07:19:27;;;;;;;469.48;234.65;;;;;;;;;;5034448;28;20029;-80
2021/03/22 07:25:00;;;;;;;466.98;232.00;;;;;;;;;;5056885;28;20044;-80
2021/03/22 07:27:35;;;;;;;466.73;237.27;;;;;;;;;;5038066;28;20017;-80
2021/03/22 07:30:04;;;;;;;471.88;240.32;;;;;;;;;;5037960;28;20603;-79
2021/03/22 07:32:35;;;;;;;474.58;238.48;;;;;;;;;;5037524;28;20040;-81
2021/03/22 07:35:15;;;;;;;471.30;244.15;;;;;;;;;;5055005;28;20029;-79
2021/03/22 07:37:56;;;;;;;462.92;230.02;;;;;;;;;;5056473;28;20033;-78
2021/03/22 07:40:22;;;;;;;;;;;;;;;;;;5038883;28;20031;-76
2021/03/22 07:42:56;;;;;;;461.92;223.43;;;;;;;;;;5055647;28;19909;-78
2021/03/22 07:45:41;;;;;;;472.27;237.63;;;;;;;;;;5062912;28;20492;-78
2021/03/22 07:48:30;;;;;;;464.73;232.30;;;;;;;;;;5054698;28;20025;-78
2021/03/22 07:51:12;;;;;;;461.85;232.55;;;;;;;;;;5045911;28;20186;-78
2021/03/22 07:53:44;;;;;;;461.40;229.05;;;;;;;;;;5043656;28;20081;-78
2021/03/22 07:56:19;;;;;;;468.30;238.93;;;;;;;;;;5052640;28;20040;-78
2021/03/22 07:58:45;;;;;;;465.05;236.73;;;;;;;;;;5043521;28;20032;-78
2021/03/22 08:01:14;;;;;;;464.45;236.75;;;;;;;;;;5057130;28;20032;-78
2021/03/22 08:03:43;;;;;;;470.52;237.35;;;;;;;;;;5056555;28;20040;-77
2021/03/22 08:06:19;;;;;;;482.55;240.65;;;;;;;;;;5037570;28;20035;-77
2021/03/22 08:08:56;;;;;;;474.70;247.60;;;;;;;;;;5051121;28;20029;-78
2021/03/22 08:11:41;;;;;;;467.10;235.45;;;;;;;;;;5054986;28;20025;-78
2021/03/22 08:14:26;;;;;;;481.90;252.45;;;;;;;;;;5051516;28;20693;-78
2021/03/22 08:16:57;;;;;;;479.10;243.68;;;;;;;;;;5055730;28;20107;-76
2021/03/22 08:19:27;;;;;;;486.63;267.30;;;;;;;;;;5036793;28;20473;-78
2021/03/22 08:22:01;;;;;;;502.73;276.60;;;;;;;;;;5053654;28;20503;-82
2021/03/22 08:24:33;;;;;;;513.70;287.48;;;;;;;;;;5047180;28;20385;-78
2021/03/22 08:27:13;;;;;;;507.50;289.08;;;;;;;;;;5054373;28;20025;-78
2021/03/22 08:29:44;;;;;;;511.60;292.63;;;;;;;;;;5036763;28;20605;-77
2021/03/22 08:32:13;;;;;;;511.95;298.63;;;;;;;;;;5042146;28;20438;-77
2021/03/22 08:34:45;;;;;;;507.13;296.90;;;;;;;;;;5055295;28;20032;-78
2021/03/22 08:37:31;;;;;;;509.23;290.50;;;;;;;;;;5049142;28;20026;-78
2021/03/22 08:40:04;;;;;;;507.85;285.17;;;;;;;;;;5040207;28;20094;-77
2021/03/22 08:42:38;;;;;;;499.98;285.42;;;;;;;;;;5036943;28;20067;-77
2021/03/22 08:45:06;;;;;;;491.45;269.52;;;;;;;;;;5034659;28;20396;-80
2021/03/22 08:47:51;;;;;;;488.45;262.98;;;;;;;;;;5051314;28;20100;-78
2021/03/22 08:50:19;;;;;;;485.83;262.20;;;;;;;;;;5040032;28;20029;-79
2021/03/22 08:52:59;;;;;;;485.02;264.00;;;;;;;;;;5053530;28;20083;-80
2021/03/22 08:55:59;;;;;;;479.10;260.67;;;;;;;;;;5035321;28;20078;-80
2021/03/22 08:58:28;;;;;;;469.52;249.32;;;;;;;;;;5050145;28;20021;-79
2021/03/22 09:00:56;;;;;;;472.60;253.20;;;;;;;;;;5065180;28;20067;-80
2021/03/22 09:03:28;;;;;;;466.85;245.25;;;;;;;;;;5035831;28;20124;-79
2021/03/22 09:06:03;;;;;;;473.80;245.10;;;;;;;;;;5034134;28;20021;-80
2021/03/22 09:08:31;;;;;;;466.50;245.57;;;;;;;;;;5048454;28;20029;-77
2021/03/22 09:11:06;;;;;;;472.13;248.15;;;;;;;;;;5034721;28;20024;-79
2021/03/22 09:14:04;;;;;;;478.90;256.13;;;;;;;;;;5052668;28;20032;-80
2021/03/22 09:16:41;;;;;;;482.20;254.20;;;;;;;;;;5045790;28;20837;-80
2021/03/22 09:19:10;;;;;;;478.65;257.17;;;;;;;;;;5051819;28;20147;-81
2021/03/22 09:21:37;;;;;;;473.02;254.00;;;;;;;;;;5036082;28;20063;-81
2021/03/22 09:24:23;;;;;;;478.55;258.75;;;;;;;;;;5035904;28;20381;-80
2021/03/22 09:26:56;;;;;;;484.80;252.35;;;;;;;;;;5035577;28;20021;-79
2021/03/22 09:29:31;;;;;;;496.90;265.40;;;;;;;;;;5053538;28;20025;-80
2021/03/22 09:31:57;;;;;;;493.30;267.30;;;;;;;;;;5052165;28;20492;-82
2021/03/22 09:34:23;;;;;;;492.75;271.23;;;;;;;;;;5035778;28;20040;-79
2021/03/22 09:36:49;;;;;;;491.38;279.88;;;;;;;;;;5048039;28;20029;-79
2021/03/22 09:39:17;;;;;;;497.73;283.40;;;;;;;;;;5046261;28;20060;-79
2021/03/22 09:41:55;;;;;;;491.90;286.52;;;;;;;;;;5050641;28;20028;-78
2021/03/22 09:44:23;;;;;;;487.73;283.20;;;;;;;;;;5057850;28;20400;-80
2021/03/22 09:47:04;;;;;;;483.08;280.70;;;;;;;;;;5054011;28;20028;-79
2021/03/22 09:49:32;;;;;;;483.90;269.33;;;;;;;;;;5048088;28;20996;-80
2021/03/22 09:52:15;;;;;;;475.80;264.95;;;;;;;;;;5054395;28;20040;-80
2021/03/22 09:54:43;;;;;;;477.13;260.92;;;;;;;;;;5035765;28;20477;-80
2021/03/22 09:57:32;;;;;;;476.33;262.83;;;;;;;;;;5053492;28;20017;-80
2021/03/22 10:00:07;;;;;;;477.15;262.95;;;;;;;;;;5033167;28;20392;-80
2021/03/22 10:02:42;;;;;;;473.40;257.52;;;;;;;;;;5053539;28;20038;-80
2021/03/22 10:05:08;;;;;;;473.27;254.63;;;;;;;;;;5035826;28;20378;-79
2021/03/22 10:07:51;;;;;;;471.20;250.23;;;;;;;;;;5034395;28;20021;-80
2021/03/22 10:10:22;;;;;;;469.80;249.30;;;;;;;;;;5052789;28;20037;-86
2021/03/22 10:12:51;;;;;;;473.27;246.68;;;;;;;;;;5034935;28;20083;-80
2021/03/22 10:15:23;;;;;;;475.85;253.23;;;;;;;;;;5053066;28;20028;-81
2021/03/22 10:17:53;;;;;;;478.35;261.67;;;;;;;;;;5053041;28;20044;-85
2021/03/22 10:20:19;;;;;;;481.33;253.15;;;;;;;;;;5053311;28;20033;-82
2021/03/22 10:22:45;;;;;;;476.17;256.83;;;;;;;;;;5035090;28;20067;-85
2021/03/22 10:25:17;;;;;;;480.38;253.15;;;;;;;;;;5053275;28;20029;-80
2021/03/22 10:27:44;;;;;;;476.08;251.43;;;;;;;;;;5049500;28;20029;-83
2021/03/22 10:30:14;;;;;;;472.95;247.27;;;;;;;;;;5041987;28;20018;-81
2021/03/22 10:32:43;;;;;;;477.15;255.68;;;;;;;;;;5032801;28;20045;-79
2021/03/22 10:35:16;;;;;;;485.30;265.85;;;;;;;;;;5039540;28;20029;-82
2021/03/22 10:37:43;;;;;;;481.75;268.00;;;;;;;;;;5033244;28;20052;-80
2021/03/22 10:40:20;;;;;;;491.15;286.88;;;;;;;;;;5045579;28;20044;-79
2021/03/22 10:42:46;;;;;;;484.35;273.77;;;;;;;;;;5045087;28;20658;-82
2021/03/22 10:45:16;;;;;;;490.15;285.52;;;;;;;;;;5041022;28;20037;-77
2021/03/22 10:47:42;;;;;;;;;;;;;;;;;;5033603;28;20029;-80
2021/03/22 10:50:18;;;;;;;484.23;264.05;;;;;;;;;;5063567;28;19905;-82
2021/03/22 10:52:44;;;;;;;480.33;266.33;;;;;;;;;;5053853;28;20032;-79
2021/03/22 10:55:25;;;;;;;485.17;274.75;;;;;;;;;;5041301;28;20051;-80
2021/03/22 10:57:51;;;;;;;487.65;278.83;;;;;;;;;;5052617;28;20032;-76
2021/03/22 11:00:17;;;;;;;488.48;278.60;;;;;;;;;;5032438;28;20025;-82
2021/03/22 11:02:49;;;;;;;485.63;274.25;;;;;;;;;;5033325;28;20123;-79
2021/03/22 11:05:17;;;;;;;481.70;265.50;;;;;;;;;;5051701;28;20048;-81
2021/03/22 11:07:53;;;;;;;481.65;268.30;;;;;;;;;;5033778;28;20029;-78
2021/03/22 11:10:20;;;;;;;481.95;272.83;;;;;;;;;;5052194;28;20270;-79
2021/03/22 11:12:49;;;;;;;489.48;281.63;;;;;;;;;;5033532;28;20053;-79
2021/03/22 11:15:25;;;;;;;487.40;271.08;;;;;;;;;;5047670;28;20025;-79
2021/03/22 11:17:51;;;;;;;490.95;280.23;;;;;;;;;;5030740;28;20080;-82
2021/03/22 11:23:25;;;;;;;490.23;270.23;;;;;;;;;;5048979;28;20039;-81
2021/03/22 11:25:52;;;;;;;490.77;267.95;;;;;;;;;;5047649;28;20025;-81
2021/03/22 11:28:18;;;;;;;489.95;274.08;;;;;;;;;;5049920;28;20108;-80
2021/03/22 11:30:54;;;;;;;485.85;274.60;;;;;;;;;;5060953;28;20095;-80
2021/03/22 11:33:22;;;;;;;490.38;279.75;;;;;;;;;;5054536;28;20122;-80
2021/03/22 11:36:00;;;;;;;490.85;283.65;;;;;;;;;;5033126;28;20029;-80
2021/03/22 11:38:30;;;;;;;487.15;281.58;;;;;;;;;;5033322;28;20032;-79
2021/03/22 11:40:56;;;;;;;486.02;279.65;;;;;;;;;;5043886;28;20021;-80
2021/03/22 11:43:22;;;;;;;485.98;277.00;;;;;;;;;;5032010;28;20059;-81
2021/03/22 11:45:48;;;;;;;492.92;283.30;;;;;;;;;;5051055;28;20037;-81
2021/03/22 11:48:21;;;;;;;493.40;280.60;;;;;;;;;;5033054;28;20353;-81
2021/03/22 11:50:58;;;;;;;493.63;283.75;;;;;;;;;;5049091;28;20469;-81
2021/03/22 11:53:25;;;;;;;493.10;283.65;;;;;;;;;;5051800;28;20096;-82
2021/03/22 11:55:51;;;;;;;491.52;279.75;;;;;;;;;;5032343;28;20017;-86
2021/03/22 11:58:39;;;;;;;487.50;272.88;;;;;;;;;;5033519;28;20468;-82
2021/03/22 12:01:12;;;;;;;487.17;278.17;;;;;;;;;;5048963;28;20098;-85
2021/03/22 12:07:08;;;;;;;492.95;282.83;;;;;;;;;;5050014;28;20071;-82
2021/03/22 12:09:35;;;;;;;485.50;280.05;;;;;;;;;;5032247;28;20630;-82
2021/03/22 12:12:05;;;;;;;484.15;273.23;;;;;;;;;;5055335;28;20100;-84
2021/03/22 12:14:31;;;;;;;487.85;285.13;;;;;;;;;;5048346;28;20032;-83
2021/03/22 12:17:00;;;;;;;484.88;275.75;;;;;;;;;;5052733;28;20120;-84
2021/03/22 12:19:34;;;;;;;484.15;279.35;;;;;;;;;;5053031;28;20025;-83
2021/03/22 12:22:00;;;;;;;491.77;284.98;;;;;;;;;;5051414;28;20033;-81
2021/03/22 12:24:26;;;;;;;488.02;272.00;;;;;;;;;;5044085;28;20021;-82
2021/03/22 12:26:52;;;;;;;491.95;284.67;;;;;;;;;;5048007;28;20033;-79
2021/03/22 12:29:18;;;;;;;487.70;285.02;;;;;;;;;;5035461;28;20845;-83
2021/03/22 12:31:46;;;;;;;492.75;286.25;;;;;;;;;;5046955;28;20021;-84
2021/03/22 12:34:22;;;;;;;484.15;284.92;;;;;;;;;;5036222;28;21060;-83
2021/03/22 12:36:49;;;;;;;483.13;271.17;;;;;;;;;;5053089;28;20416;-87
2021/03/22 12:39:26;;;;;;;486.00;284.23;;;;;;;;;;5064306;28;20484;-84
2021/03/22 12:41:53;;;;;;;483.25;276.90;;;;;;;;;;5035794;28;20029;-83
2021/03/22 12:44:19;;;;;;;487.02;284.33;;;;;;;;;;5035121;28;20045;-85
2021/03/22 12:46:45;;;;;;;488.95;281.52;;;;;;;;;;5048057;28;20035;-84
2021/03/22 12:49:15;;;;;;;487.23;283.05;;;;;;;;;;5034144;28;20017;-86
2021/03/22 12:51:41;;;;;;;486.23;281.83;;;;;;;;;;5043028;28;20485;-84
2021/03/22 12:54:07;;;;;;;490.38;289.60;;;;;;;;;;5051653;28;20036;-83
2021/03/22 12:56:33;;;;;;;495.40;299.38;;;;;;;;;;5054698;28;20528;-84
2021/03/22 12:58:59;;;;;;;492.75;282.17;;;;;;;;;;5054023;28;20040;-84
2021/03/22 13:01:25;;;;;;;494.35;290.27;;;;;;;;;;5040940;28;20498;-84
2021/03/22 13:03:51;;;;;;;491.67;289.83;;;;;;;;;;5046997;28;20032;-88
2021/03/22 13:06:19;;;;;;;492.48;285.67;;;;;;;;;;5052857;28;20067;-87
2021/03/22 13:08:45;;;;;;;491.67;286.02;;;;;;;;;;5035830;28;20021;-84
2021/03/22 13:11:13;;;;;;;492.33;288.05;;;;;;;;;;5054554;28;20029;-83
2021/03/22 13:13:39;;;;;;;483.10;276.27;;;;;;;;;;5034344;28;20102;-85
2021/03/22 13:16:05;;;;;;;487.67;279.65;;;;;;;;;;5057433;28;20105;-87
2021/03/22 13:18:32;;;;;;;489.48;280.63;;;;;;;;;;5052787;28;20691;-82
2021/03/22 13:21:01;;;;;;;482.00;272.90;;;;;;;;;;5035690;28;20025;-81
2021/03/22 13:23:28;;;;;;;482.13;270.30;;;;;;;;;;5046651;28;20489;-80
2021/03/22 13:25:55;;;;;;;488.77;277.30;;;;;;;;;;5050228;28;20492;-87
2021/03/22 13:28:23;;;;;;;486.35;276.90;;;;;;;;;;5053064;28;20417;-81
2021/03/22 13:30:49;;;;;;;482.42;276.48;;;;;;;;;;5046129;28;20461;-84
2021/03/22 13:33:19;;;;;;;485.52;277.15;;;;;;;;;;5046023;28;20029;-82
2021/03/22 13:35:45;;;;;;;;;;;;;;;;;;5050099;28;20021;-80
2021/03/22 13:38:14;;;;;;;487.13;274.27;;;;;;;;;;5040215;28;19916;-86
2021/03/22 13:40:40;;;;;;;489.23;277.05;;;;;;;;;;5041790;28;20032;-83
2021/03/22 13:43:09;;;;;;;480.02;275.15;;;;;;;;;;5035855;28;20017;-78
2021/03/22 13:45:35;;;;;;;482.30;278.15;;;;;;;;;;5034368;28;20770;-79
2021/03/22 13:48:01;;;;;;;482.92;282.35;;;;;;;;;;5052507;28;20025;-78
2021/03/22 13:50:27;;;;;;;476.88;273.17;;;;;;;;;;5036072;28;20052;-78
2021/03/22 13:52:53;;;;;;;486.27;282.75;;;;;;;;;;5035533;28;20108;-79
2021/03/22 13:55:19;;;;;;;485.38;276.80;;;;;;;;;;5046328;28;20039;-78
2021/03/22 13:57:46;;;;;;;481.92;275.55;;;;;;;;;;5051392;28;20075;-79
2021/03/22 14:00:13;;;;;;;489.17;280.98;;;;;;;;;;5046169;28;20053;-78
2021/03/22 14:02:40;;;;;;;485.77;278.40;;;;;;;;;;5049911;28;20625;-80
2021/03/22 14:05:08;;;;;;;484.23;274.35;;;;;;;;;;5048097;28;20021;-79
2021/03/22 14:07:34;;;;;;;489.58;286.52;;;;;;;;;;5035069;28;20033;-81
2021/03/22 14:10:00;;;;;;;488.40;276.40;;;;;;;;;;5035185;28;20128;-79
2021/03/22 14:12:25;;;;;;;485.98;274.42;;;;;;;;;;5045894;28;20033;-80
2021/03/22 14:14:51;;;;;;;485.80;277.10;;;;;;;;;;5029414;28;20026;-80
2021/03/22 14:17:17;;;;;;;494.55;291.05;;;;;;;;;;5029637;28;20040;-80
2021/03/22 14:19:44;;;;;;;496.90;288.95;;;;;;;;;;5030729;28;20433;-78
2021/03/22 14:22:10;;;;;;;499.20;278.92;;;;;;;;;;5011449;28;20761;-80
2021/03/22 14:24:36;;;;;;;518.67;294.48;;;;;;;;;;5029297;28;20045;-78